createdAt,value
2017-09-09T00:00:08.042Z,84.88
2017-09-09T00:02:35.817Z,84.02
2017-09-09T00:05:03.609Z,84.11
2017-09-09T00:07:31.343Z,84.23
2017-09-09T00:09:59.122Z,83.71
2017-09-09T00:12:26.831Z,83.12
2017-09-09T00:14:54.618Z,82.68
2017-09-09T00:17:22.486Z,83.51
2017-09-09T00:19:50.239Z,83.68
2017-09-09T00:22:17.996Z,84.29
2017-09-09T00:24:45.807Z,84.46
2017-09-09T00:27:14.629Z,84.26
2017-09-09T00:29:42.479Z,84.55
2017-09-09T00:32:10.166Z,84.33
2017-09-09T00:34:37.929Z,84.25
2017-09-09T00:37:05.647Z,85.22
2017-09-09T00:39:33.426Z,85.65
2017-09-09T00:42:01.177Z,85.18
2017-09-09T00:44:28.943Z,84.69
2017-09-09T00:46:56.731Z,84.69
2017-09-09T00:49:24.415Z,84.43
2017-09-09T00:51:52.301Z,83.66
2017-09-09T00:54:20.164Z,83.34
2017-09-09T00:56:47.963Z,83.45
2017-09-09T00:59:15.772Z,84.23
2017-09-09T01:01:43.485Z,84.86
2017-09-09T01:04:11.315Z,84.42
2017-09-09T01:06:39.082Z,84.30
2017-09-09T01:09:07.805Z,83.89
2017-09-09T01:11:35.685Z,83.91
2017-09-09T01:14:03.442Z,83.46
2017-09-09T01:16:31.218Z,83.82
2017-09-09T01:18:58.983Z,84.36
2017-09-09T01:21:26.688Z,84.71
2017-09-09T01:23:54.432Z,85.32
2017-09-09T01:26:22.242Z,86.09
2017-09-09T01:28:50.004Z,85.82
2017-09-09T01:31:17.676Z,85.04
2017-09-09T01:33:45.406Z,84.43
2017-09-09T01:36:13.117Z,84.23
2017-09-09T01:38:40.896Z,83.96
2017-09-09T01:41:08.613Z,84.59
2017-09-09T01:43:36.361Z,84.75
2017-09-09T01:46:04.183Z,84.45
2017-09-09T01:48:31.882Z,85.30
2017-09-09T01:50:59.583Z,85.18
2017-09-09T01:53:27.431Z,85.66
2017-09-09T01:55:55.153Z,86.17
2017-09-09T01:58:22.876Z,86.00
2017-09-09T02:00:50.652Z,85.75
2017-09-09T02:03:18.389Z,85.39
2017-09-09T02:05:46.085Z,85.08
2017-09-09T02:08:13.828Z,85.26
2017-09-09T02:10:41.496Z,84.83
2017-09-09T02:13:09.264Z,84.71
2017-09-09T02:15:37.075Z,85.28
2017-09-09T02:18:04.780Z,85.21
2017-09-09T02:20:32.604Z,84.92
2017-09-09T02:23:00.368Z,84.87
2017-09-09T02:25:28.119Z,85.02
2017-09-09T02:27:55.897Z,85.63
2017-09-09T02:30:23.598Z,85.95
2017-09-09T02:32:51.325Z,85.65
2017-09-09T02:35:19.020Z,85.50
2017-09-09T02:37:46.764Z,85.60
2017-09-09T02:40:14.497Z,85.77
2017-09-09T02:42:42.192Z,85.82
2017-09-09T02:45:09.978Z,85.31
2017-09-09T02:47:37.697Z,85.07
2017-09-09T02:50:05.412Z,84.96
2017-09-09T02:52:33.103Z,85.22
2017-09-09T02:55:00.850Z,85.42
2017-09-09T02:57:29.609Z,84.39
2017-09-09T02:59:57.352Z,84.47
2017-09-09T03:02:25.120Z,85.91
2017-09-09T03:04:52.835Z,85.57
2017-09-09T03:07:20.517Z,85.50
2017-09-09T03:09:48.314Z,85.24
2017-09-09T03:12:16.017Z,84.97
2017-09-09T03:14:43.755Z,84.56
2017-09-09T03:17:11.490Z,84.69
2017-09-09T03:19:39.276Z,84.62
2017-09-09T03:22:06.997Z,84.56
2017-09-09T03:24:34.700Z,84.48
2017-09-09T03:27:02.491Z,84.70
2017-09-09T03:29:30.169Z,85.49
2017-09-09T03:31:57.965Z,85.83
2017-09-09T03:34:25.642Z,85.14
2017-09-09T03:36:53.357Z,84.85
2017-09-09T03:39:21.100Z,85.46
2017-09-09T03:41:48.789Z,85.21
2017-09-09T03:44:16.539Z,85.74
2017-09-09T03:46:44.265Z,85.77
2017-09-09T03:49:11.989Z,85.48
2017-09-09T03:51:39.725Z,84.98
2017-09-09T03:54:07.417Z,85.59
2017-09-09T03:56:35.212Z,85.34
2017-09-09T03:59:02.929Z,85.99
2017-09-09T04:01:30.618Z,84.99
2017-09-09T04:03:58.383Z,85.47
2017-09-09T04:06:26.289Z,85.66
2017-09-09T04:08:54.048Z,86.15
2017-09-09T04:11:21.844Z,86.93
2017-09-09T04:13:49.689Z,87.72
2017-09-09T04:16:17.401Z,88.35
2017-09-09T04:18:45.080Z,88.70
2017-09-09T04:21:12.853Z,87.89
2017-09-09T04:23:40.566Z,87.87
2017-09-09T04:26:08.259Z,87.37
2017-09-09T04:28:36.005Z,87.60
2017-09-09T04:31:03.695Z,87.23
2017-09-09T04:33:31.462Z,88.42
2017-09-09T04:35:59.158Z,88.38
2017-09-09T04:38:26.906Z,88.36
2017-09-09T04:40:54.585Z,87.65
2017-09-09T04:43:22.403Z,87.66
2017-09-09T04:45:50.143Z,88.46
2017-09-09T04:48:17.903Z,88.75
2017-09-09T04:50:45.703Z,88.33
2017-09-09T04:53:13.405Z,88.39
2017-09-09T04:55:41.299Z,87.96
2017-09-09T04:58:09.088Z,87.77
2017-09-09T05:00:36.891Z,87.11
2017-09-09T05:03:04.693Z,86.46
2017-09-09T05:05:32.466Z,87.33
2017-09-09T05:08:00.234Z,87.04
2017-09-09T05:10:28.065Z,86.72
2017-09-09T05:12:55.827Z,86.93
2017-09-09T05:15:23.530Z,87.79
2017-09-09T05:17:51.252Z,86.93
2017-09-09T05:20:19.026Z,86.08
2017-09-09T05:22:46.780Z,86.55
2017-09-09T05:25:14.532Z,86.32
2017-09-09T05:27:42.313Z,86.16
2017-09-09T05:30:10.115Z,85.13
2017-09-09T05:32:37.913Z,85.07
2017-09-09T05:35:05.711Z,85.40
2017-09-09T05:37:33.614Z,87.30
2017-09-09T05:40:01.714Z,87.26
2017-09-09T05:42:29.598Z,87.13
2017-09-09T05:44:57.354Z,86.72
2017-09-09T05:47:27.104Z,86.36
2017-09-09T05:49:55.000Z,85.85
2017-09-09T05:52:22.814Z,86.13
2017-09-09T05:54:50.599Z,85.29
2017-09-09T05:57:18.361Z,84.79
2017-09-09T05:59:46.809Z,84.39
2017-09-09T06:02:16.038Z,83.99
2017-09-09T06:04:43.815Z,83.15
2017-09-09T06:07:11.635Z,82.78
2017-09-09T06:09:40.439Z,82.46
2017-09-09T06:12:13.838Z,82.45
2017-09-09T06:14:41.591Z,82.91
2017-09-09T06:17:10.246Z,83.09
2017-09-09T06:19:38.726Z,81.76
2017-09-09T06:22:07.210Z,80.73
2017-09-09T06:24:34.919Z,80.65
2017-09-09T06:27:04.129Z,82.18
2017-09-09T06:29:31.851Z,83.59
2017-09-09T06:31:59.605Z,81.71
2017-09-09T06:34:27.359Z,80.76
2017-09-09T06:36:55.077Z,81.61
2017-09-09T06:39:22.857Z,80.63
2017-09-09T06:41:50.566Z,79.20
2017-09-09T06:44:18.414Z,78.14
2017-09-09T06:46:46.313Z,78.47
2017-09-09T06:49:14.099Z,78.10
2017-09-09T06:51:41.900Z,78.02
2017-09-09T06:54:09.666Z,77.62
2017-09-09T06:56:38.035Z,77.09
2017-09-09T06:59:06.231Z,77.35
2017-09-09T07:01:34.034Z,78.47
2017-09-09T07:04:02.186Z,78.81
2017-09-09T07:06:29.951Z,77.90
2017-09-09T07:08:57.838Z,78.51
2017-09-09T07:11:25.642Z,78.61
2017-09-09T07:13:53.368Z,79.61
2017-09-09T07:16:21.141Z,78.91
2017-09-09T07:18:48.942Z,79.22
2017-09-09T07:21:16.665Z,79.45
2017-09-09T07:23:44.495Z,78.23
2017-09-09T07:26:12.237Z,76.95
2017-09-09T07:28:40.077Z,77.11
2017-09-09T07:31:07.858Z,74.57
2017-09-09T07:33:35.628Z,75.10
2017-09-09T07:36:03.446Z,73.73
2017-09-09T07:38:31.220Z,73.84
2017-09-09T07:40:58.946Z,73.49
2017-09-09T07:43:27.432Z,74.25
2017-09-09T07:45:55.183Z,72.72
2017-09-09T07:48:22.975Z,72.10
2017-09-09T07:50:50.750Z,70.49
2017-09-09T07:53:18.487Z,69.57
2017-09-09T07:55:46.325Z,70.68
2017-09-09T07:58:14.283Z,71.97
2017-09-09T08:00:42.158Z,71.60
2017-09-09T08:03:11.606Z,70.24
2017-09-09T08:05:39.974Z,69.89
2017-09-09T08:08:08.527Z,68.68
2017-09-09T08:10:36.478Z,64.97
2017-09-09T08:13:04.301Z,66.33
2017-09-09T08:15:32.068Z,66.37
2017-09-09T08:17:59.957Z,68.19
2017-09-09T08:20:27.698Z,67.36
2017-09-09T08:22:55.452Z,66.89
2017-09-09T08:25:23.555Z,64.93
2017-09-09T08:27:51.409Z,64.96
2017-09-09T08:30:20.383Z,62.65
2017-09-09T08:32:48.264Z,62.47
2017-09-09T08:35:16.060Z,64.34
2017-09-09T08:37:44.694Z,63.03
2017-09-09T08:40:12.474Z,60.75
2017-09-09T08:42:40.234Z,63.83
2017-09-09T08:45:07.998Z,63.21
2017-09-09T08:47:35.820Z,64.16
2017-09-09T08:50:03.555Z,62.97
2017-09-09T08:52:31.289Z,62.28
2017-09-09T08:54:59.123Z,61.12
2017-09-09T08:57:27.524Z,61.92
2017-09-09T08:59:55.270Z,61.48
2017-09-09T09:02:30.561Z,61.82
2017-09-09T09:05:00.471Z,60.60
2017-09-09T09:07:28.256Z,58.69
2017-09-09T09:09:56.074Z,58.33
2017-09-09T09:12:23.854Z,60.84
2017-09-09T09:14:51.699Z,60.51
2017-09-09T09:17:19.509Z,60.35
2017-09-09T09:19:47.271Z,57.91
2017-09-09T09:22:15.043Z,59.30
2017-09-09T09:24:42.820Z,59.82
2017-09-09T09:27:14.232Z,61.26
2017-09-09T09:29:56.525Z,60.53
2017-09-09T09:32:26.150Z,59.66
2017-09-09T09:34:55.412Z,54.72
2017-09-09T09:37:26.726Z,54.92
2017-09-09T09:39:56.093Z,56.60
2017-09-09T09:42:25.537Z,57.70
2017-09-09T09:44:56.669Z,52.51
2017-09-09T09:47:24.383Z,53.75
2017-09-09T09:49:52.673Z,55.28
2017-09-09T09:52:25.230Z,53.74
2017-09-09T09:54:57.294Z,54.10
2017-09-09T09:57:26.162Z,52.37
2017-09-09T09:59:55.812Z,51.05
2017-09-09T10:02:27.000Z,54.05
2017-09-09T10:04:59.246Z,50.62
2017-09-09T10:07:36.228Z,54.34
2017-09-09T10:10:43.178Z,53.80
2017-09-09T10:13:16.708Z,54.59
2017-09-09T10:15:49.136Z,55.10
2017-09-09T10:18:22.454Z,53.63
2017-09-09T10:21:01.520Z,52.67
2017-09-09T10:23:30.133Z,52.58
2017-09-09T10:25:58.375Z,49.12
2017-09-09T10:28:28.448Z,51.47
2017-09-09T10:30:56.413Z,50.51
2017-09-09T10:33:24.182Z,52.58
2017-09-09T10:35:52.398Z,48.88
2017-09-09T10:38:20.161Z,48.62
2017-09-09T10:40:47.909Z,48.53
2017-09-09T10:43:16.427Z,49.32
2017-09-09T10:45:46.689Z,48.43
2017-09-09T10:48:14.543Z,49.74
2017-09-09T10:50:42.597Z,47.66
2017-09-09T10:53:13.340Z,49.54
2017-09-09T10:55:42.161Z,49.58
2017-09-09T10:58:09.997Z,50.19
2017-09-09T11:00:37.773Z,44.93
2017-09-09T11:03:05.585Z,47.74
2017-09-09T11:05:33.811Z,45.71
2017-09-09T11:08:01.518Z,46.99
2017-09-09T11:10:30.271Z,48.30
2017-09-09T11:12:59.317Z,47.01
2017-09-09T11:15:27.037Z,46.33
2017-09-09T11:17:55.485Z,46.81
2017-09-09T11:20:24.710Z,46.94
2017-09-09T11:22:54.630Z,46.52
2017-09-09T11:25:23.972Z,47.24
2017-09-09T11:27:52.815Z,47.16
2017-09-09T11:30:20.611Z,43.76
2017-09-09T11:32:48.889Z,43.52
2017-09-09T11:35:24.444Z,44.48
2017-09-09T11:37:55.165Z,44.46
2017-09-09T11:40:25.040Z,46.42
2017-09-09T11:42:53.926Z,46.38
2017-09-09T11:45:22.369Z,44.97
2017-09-09T11:47:50.107Z,46.76
2017-09-09T11:50:17.900Z,44.62
2017-09-09T11:52:45.675Z,44.84
2017-09-09T11:55:13.852Z,44.59
2017-09-09T11:57:42.409Z,45.52
2017-09-09T12:00:10.214Z,45.81
2017-09-09T12:02:37.929Z,45.42
2017-09-09T12:05:05.722Z,45.63
2017-09-09T12:07:33.448Z,45.21
2017-09-09T12:10:01.248Z,44.91
2017-09-09T12:12:29.032Z,43.88
2017-09-09T12:14:56.785Z,42.45
2017-09-09T12:17:24.569Z,42.29
2017-09-09T12:19:53.356Z,40.17
2017-09-09T12:22:23.181Z,40.13
2017-09-09T12:24:50.919Z,42.75
2017-09-09T12:27:19.448Z,41.98
2017-09-09T12:29:48.155Z,42.48
2017-09-09T12:32:15.843Z,41.24
2017-09-09T12:34:43.554Z,41.93
2017-09-09T12:37:11.357Z,42.53
2017-09-09T12:39:39.515Z,40.70
2017-09-09T12:42:07.425Z,39.70
2017-09-09T12:44:35.165Z,42.10
2017-09-09T12:47:02.905Z,42.98
2017-09-09T12:49:30.744Z,41.58
2017-09-09T12:51:58.642Z,41.59
2017-09-09T12:54:26.456Z,40.81
2017-09-09T12:56:54.154Z,41.95
2017-09-09T12:59:22.919Z,41.50
2017-09-09T13:01:50.705Z,41.71
2017-09-09T13:04:18.509Z,41.76
2017-09-09T13:06:46.304Z,42.51
2017-09-09T13:09:14.186Z,42.98
2017-09-09T13:11:42.501Z,42.18
2017-09-09T13:14:10.199Z,42.77
2017-09-09T13:16:37.978Z,42.18
2017-09-09T13:19:07.233Z,40.86
2017-09-09T13:21:35.360Z,41.84
2017-09-09T13:24:04.305Z,44.14
2017-09-09T13:26:41.792Z,43.45
2017-09-09T13:29:12.297Z,43.29
2017-09-09T13:31:43.231Z,45.39
2017-09-09T13:34:13.877Z,46.76
2017-09-09T13:36:41.603Z,46.96
2017-09-09T13:39:10.725Z,47.45
2017-09-09T13:41:40.314Z,46.93
2017-09-09T13:44:08.096Z,47.71
2017-09-09T13:46:35.877Z,47.36
2017-09-09T13:49:03.825Z,47.64
2017-09-09T13:51:32.618Z,47.00
2017-09-09T13:54:00.413Z,42.10
2017-09-09T13:56:28.226Z,42.23
2017-09-09T13:58:55.975Z,44.82
2017-09-09T14:01:23.694Z,44.08
2017-09-09T14:03:51.542Z,43.49
2017-09-09T14:06:23.943Z,42.84
2017-09-09T14:08:53.536Z,46.05
2017-09-09T14:11:21.269Z,47.34
2017-09-09T14:13:51.023Z,47.30
2017-09-09T14:16:19.866Z,47.59
2017-09-09T14:18:51.258Z,51.33
2017-09-09T14:21:19.048Z,51.21
2017-09-09T14:23:49.374Z,50.46
2017-09-09T14:26:17.099Z,51.99
2017-09-09T14:28:44.930Z,51.91
2017-09-09T14:31:12.748Z,49.09
2017-09-09T14:33:40.473Z,50.04
2017-09-09T14:36:08.273Z,44.58
2017-09-09T14:38:36.042Z,45.68
2017-09-09T14:41:04.503Z,49.17
2017-09-09T14:43:32.363Z,49.07
2017-09-09T14:46:00.142Z,45.48
2017-09-09T14:48:28.043Z,45.85
2017-09-09T14:50:55.784Z,48.15
2017-09-09T14:53:24.530Z,51.28
2017-09-09T14:55:52.259Z,48.61
2017-09-09T14:58:20.025Z,50.24
2017-09-09T15:00:47.827Z,49.64
2017-09-09T15:03:15.566Z,48.78
2017-09-09T15:05:43.388Z,47.59
2017-09-09T15:08:11.907Z,48.63
2017-09-09T15:10:39.613Z,49.91
2017-09-09T15:13:07.384Z,52.94
2017-09-09T15:15:35.163Z,53.67
2017-09-09T15:18:03.739Z,53.67
2017-09-09T15:20:31.566Z,53.91
2017-09-09T15:22:59.319Z,58.12
2017-09-09T15:25:27.861Z,58.83
2017-09-09T15:27:55.854Z,58.45
2017-09-09T15:30:23.570Z,56.75
2017-09-09T15:32:52.239Z,57.65
2017-09-09T15:35:21.231Z,59.65
2017-09-09T15:37:49.696Z,59.74
2017-09-09T15:40:17.546Z,59.32
2017-09-09T15:42:45.357Z,58.51
2017-09-09T15:45:13.077Z,54.63
2017-09-09T15:47:40.996Z,54.97
2017-09-09T15:50:10.407Z,54.40
2017-09-09T15:52:38.158Z,55.93
2017-09-09T15:55:06.903Z,55.84
2017-09-09T15:57:34.647Z,55.54
2017-09-09T16:00:03.196Z,55.35
2017-09-09T16:02:31.044Z,56.56
2017-09-09T16:04:59.429Z,57.21
2017-09-09T16:07:28.256Z,58.97
2017-09-09T16:09:56.021Z,59.76
2017-09-09T16:12:23.765Z,60.34
2017-09-09T16:14:51.606Z,60.11
2017-09-09T16:17:19.308Z,60.34
2017-09-09T16:19:47.235Z,59.73
2017-09-09T16:22:14.983Z,60.45
2017-09-09T16:24:42.730Z,61.44
2017-09-09T16:27:10.569Z,61.26
2017-09-09T16:29:38.752Z,61.52
2017-09-09T16:32:06.475Z,61.83
2017-09-09T16:34:34.292Z,62.67
2017-09-09T16:37:02.084Z,63.39
2017-09-09T16:39:29.877Z,63.72
2017-09-09T16:41:57.730Z,65.65
2017-09-09T16:44:25.569Z,65.83
2017-09-09T16:46:53.402Z,66.54
2017-09-09T16:49:21.235Z,65.16
2017-09-09T16:51:49.011Z,63.35
2017-09-09T16:54:16.772Z,63.75
2017-09-09T16:56:47.517Z,63.98
2017-09-09T16:59:15.354Z,66.70
2017-09-09T17:01:43.077Z,68.29
2017-09-09T17:04:10.856Z,69.27
2017-09-09T17:06:39.341Z,66.99
2017-09-09T17:09:07.077Z,67.50
2017-09-09T17:11:34.815Z,68.19
2017-09-09T17:14:02.582Z,68.81
2017-09-09T17:16:31.596Z,70.42
2017-09-09T17:18:59.577Z,70.99
2017-09-09T17:21:27.413Z,71.76
2017-09-09T17:23:55.250Z,71.10
2017-09-09T17:26:23.886Z,70.29
2017-09-09T17:28:52.024Z,69.87
2017-09-09T17:31:19.863Z,72.04
2017-09-09T17:33:50.036Z,71.90
2017-09-09T17:36:17.812Z,72.06
2017-09-09T17:38:45.573Z,71.66
2017-09-09T17:41:14.548Z,72.16
2017-09-09T17:43:43.113Z,72.40
2017-09-09T17:46:10.903Z,71.73
2017-09-09T17:48:38.673Z,71.54
2017-09-09T17:51:06.486Z,73.81
2017-09-09T17:53:37.514Z,73.49
2017-09-09T17:56:06.411Z,73.50
2017-09-09T17:58:34.167Z,72.15
2017-09-09T18:01:01.959Z,72.78
2017-09-09T18:03:29.735Z,73.21
2017-09-09T18:05:58.325Z,73.46
2017-09-09T18:08:26.217Z,73.31
2017-09-09T18:10:54.045Z,74.44
2017-09-09T18:13:21.883Z,74.05
2017-09-09T18:15:50.498Z,74.19
2017-09-09T18:18:18.274Z,73.81
2017-09-09T18:20:48.233Z,74.40
2017-09-09T18:23:15.977Z,75.16
2017-09-09T18:25:44.553Z,75.18
2017-09-09T18:28:12.320Z,75.86
2017-09-09T18:30:40.103Z,75.57
2017-09-09T18:33:08.556Z,75.82
2017-09-09T18:35:36.567Z,75.74
2017-09-09T18:38:04.366Z,75.66
2017-09-09T18:40:32.111Z,76.45
2017-09-09T18:42:59.899Z,75.75
2017-09-09T18:45:27.657Z,75.73
2017-09-09T18:47:55.467Z,76.58
2017-09-09T18:50:24.186Z,75.64
2017-09-09T18:52:51.986Z,76.32
2017-09-09T18:55:19.936Z,77.23
2017-09-09T18:57:47.986Z,77.08
2017-09-09T19:00:15.839Z,76.76
2017-09-09T19:02:43.769Z,76.46
2017-09-09T19:05:11.695Z,77.70
2017-09-09T19:07:39.546Z,78.14
2017-09-09T19:10:07.447Z,78.05
2017-09-09T19:12:36.590Z,77.58
2017-09-09T19:24:14.927Z,78.48
2017-09-09T19:26:42.762Z,78.27
2017-09-09T19:29:10.634Z,77.49
2017-09-09T19:31:38.399Z,78.52
2017-09-09T19:34:06.157Z,78.44
2017-09-09T19:36:33.870Z,78.17
2017-09-09T19:39:02.689Z,78.67
2017-09-09T19:41:30.493Z,77.97
2017-09-09T19:43:58.390Z,78.98
2017-09-09T19:46:26.130Z,78.50
2017-09-09T19:48:53.975Z,79.09
2017-09-09T19:51:21.849Z,79.12
2017-09-09T19:53:49.761Z,79.03
2017-09-09T19:56:17.558Z,78.94
2017-09-09T19:58:45.678Z,79.54
2017-09-09T20:01:14.124Z,79.33
2017-09-09T20:03:41.921Z,79.06
2017-09-09T20:06:09.697Z,78.79
2017-09-09T20:08:38.000Z,79.20
2017-09-09T20:11:05.772Z,79.18
2017-09-09T20:13:34.654Z,79.18
2017-09-09T20:16:02.530Z,79.69
2017-09-09T20:18:34.063Z,79.63
2017-09-09T20:21:01.841Z,79.38
2017-09-09T20:23:29.748Z,78.90
2017-09-09T20:25:57.523Z,80.04
2017-09-09T20:28:26.176Z,80.89
2017-09-09T20:30:53.992Z,80.48
2017-09-09T20:33:21.794Z,80.79
2017-09-09T20:35:49.484Z,81.67
2017-09-09T20:38:17.255Z,81.81
2017-09-09T20:40:45.031Z,82.08
2017-09-09T20:43:12.795Z,81.68
2017-09-09T20:45:40.532Z,81.96
2017-09-09T20:48:09.097Z,81.98
2017-09-09T20:50:37.678Z,81.30
2017-09-09T20:53:05.523Z,81.84
2017-09-09T20:55:33.242Z,81.18
2017-09-09T20:58:01.056Z,81.26
2017-09-09T21:00:30.994Z,82.19
2017-09-09T21:02:59.026Z,82.13
2017-09-09T21:05:27.872Z,80.81
2017-09-09T21:07:55.598Z,81.01
2017-09-09T21:10:23.350Z,81.45
2017-09-09T21:12:51.190Z,81.67
2017-09-09T21:15:20.568Z,81.34
2017-09-09T21:17:48.308Z,81.56
2017-09-09T21:20:16.027Z,81.58
2017-09-09T21:22:44.484Z,82.14
2017-09-09T21:25:12.280Z,82.29
2017-09-09T21:27:41.058Z,82.24
2017-09-09T21:30:08.864Z,82.43
2017-09-09T21:32:36.620Z,82.53
2017-09-09T21:35:04.520Z,82.66
2017-09-09T21:37:32.325Z,82.78
2017-09-09T21:40:00.115Z,82.29
2017-09-09T21:42:27.845Z,82.65
2017-09-09T21:44:55.682Z,83.02
2017-09-09T21:47:23.494Z,83.71
2017-09-09T21:49:51.882Z,83.08
2017-09-09T21:52:20.369Z,83.09
2017-09-09T21:54:48.992Z,83.70
2017-09-09T21:57:19.290Z,84.19
2017-09-09T21:59:47.015Z,84.93
2017-09-09T22:02:14.808Z,83.85
2017-09-09T22:04:44.343Z,83.46
2017-09-09T22:07:12.119Z,83.68
2017-09-09T22:09:39.920Z,83.83
2017-09-09T22:12:07.661Z,83.83
2017-09-09T22:14:35.374Z,83.56
2017-09-09T22:17:04.305Z,83.26
2017-09-09T22:19:32.075Z,83.94
2017-09-09T22:21:59.852Z,84.34
2017-09-09T22:24:27.680Z,84.53
2017-09-09T22:26:55.402Z,84.33
2017-09-09T22:29:23.163Z,83.98
2017-09-09T22:31:50.949Z,83.61
2017-09-09T22:34:18.679Z,83.55
2017-09-09T22:36:46.613Z,84.00
2017-09-09T22:39:14.416Z,83.78
2017-09-09T22:41:42.244Z,83.25
2017-09-09T22:44:09.975Z,83.29
2017-09-09T22:46:37.817Z,81.89
2017-09-09T22:49:05.622Z,82.94
2017-09-09T22:51:33.419Z,83.45
2017-09-09T22:54:01.142Z,83.47
2017-09-09T22:56:28.892Z,83.30
2017-09-09T22:58:56.756Z,83.99
2017-09-09T23:01:24.572Z,83.52
2017-09-09T23:03:52.398Z,83.45
2017-09-09T23:06:20.070Z,83.64
2017-09-09T23:08:47.928Z,83.91
2017-09-09T23:11:16.399Z,84.04
2017-09-09T23:13:44.160Z,83.95
2017-09-09T23:16:11.990Z,84.58
2017-09-09T23:18:39.754Z,84.13
2017-09-09T23:21:07.530Z,84.36
2017-09-09T23:23:35.261Z,84.69
2017-09-09T23:26:03.042Z,85.09
2017-09-09T23:28:30.776Z,84.91
2017-09-09T23:30:58.483Z,84.34
2017-09-09T23:33:26.187Z,84.67
2017-09-09T23:35:54.031Z,84.92
2017-09-09T23:38:21.810Z,85.15
2017-09-09T23:40:49.653Z,84.36
2017-09-09T23:43:17.377Z,84.37
2017-09-09T23:45:45.086Z,85.10
2017-09-09T23:48:12.918Z,84.96
2017-09-09T23:50:40.659Z,84.87
2017-09-09T23:53:08.355Z,84.34
2017-09-09T23:55:36.229Z,84.15
2017-09-09T23:58:04.001Z,84.38
